Time,TemperatureF,DewpointF,PressureIn,WindDirection,WindDirectionDegrees,WindSpeedMPH,WindSpeedGustMPH,Humidity,HourlyPrecipIn,Conditions,Clouds,dailyrainin,SoftwareType,DateUTC
2013-06-01 00:01:00,80.3,74.3,29.90,ENE,74,6.9,6.9,82,0.00,RA,,0.00,WeatherDisplay:10.37,2013-06-01 05:01:00,
2013-06-01 00:06:00,80.3,74.3,29.89,ENE,59,5.8,5.8,82,0.00,RA,,0.00,WeatherDisplay:10.37,2013-06-01 05:06:00,
2013-06-01 00:11:00,80.1,74.1,29.89,East,87,6.9,6.9,82,0.00,CLR,,0.00,WeatherDisplay:10.37,2013-06-01 05:11:00,
2013-06-01 00:16:00,79.8,74.2,29.90,East,98,7.0,7.0,83,0.00,CLR,,0.00,WeatherDisplay:10.37,2013-06-01 05:16:00,
2013-06-01 00:21:00,79.8,74.2,29.91,East,79,3.5,3.5,83,0.00,CLR,,0.00,WeatherDisplay:10.37,2013-06-01 05:21:00,
2013-06-01 00:26:00,80.0,74.4,29.90,ESE,103,4.6,4.6,83,0.00,CLR,,0.00,WeatherDisplay:10.37,2013-06-01 05:26:00,
2013-06-01 00:31:00,79.8,74.2,29.90,East,100,1.2,1.2,83,0.00,CLR,,0.00,WeatherDisplay:10.37,2013-06-01 05:31:00,
2013-06-01 00:36:00,79.6,74.0,29.90,ENE,75,5.8,5.8,83,0.00,CLR,,0.00,WeatherDisplay:10.37,2013-06-01 05:36:00,
2013-06-01 00:41:00,79.7,74.1,29.89,East,87,9.2,9.2,83,0.00,CLR,,0.00,WeatherDisplay:10.37,2013-06-01 05:41:00,
2013-06-01 00:46:00,79.9,74.3,29.90,ESE,103,5.8,5.8,83,0.00,CLR,,0.00,WeatherDisplay:10.37,2013-06-01 05:46:00,
2013-06-01 00:51:00,79.4,73.8,29.90,East,95,5.0,5.0,83,0.00,CLR,,0.00,WeatherDisplay:10.37,2013-06-01 05:51:00,
2013-06-01 00:56:00,79.3,74.0,29.90,South,171,4.0,4.0,84,0.00,CLR,,0.00,WeatherDisplay:10.37,2013-06-01 05:56:00,
2013-06-01 01:01:00,79.3,74.4,29.89,East,83,11.5,11.5,85,0.00,CLR,,0.00,WeatherDisplay:10.37,2013-06-01 06:01:00,
2013-06-01 01:06:00,79.3,74.4,29.89,East,79,4.6,4.6,85,0.00,CLR,,0.00,WeatherDisplay:10.37,2013-06-01 06:06:00,
2013-06-01 01:11:00,78.8,73.9,29.89,ESE,103,6.9,6.9,85,0.00,CLR,,0.00,WeatherDisplay:10.37,2013-06-01 06:11:00,
2013-06-01 01:16:00,78.7,74.2,29.89,East,98,11.5,11.5,86,0.00,CLR,,0.00,WeatherDisplay:10.37,2013-06-01 06:16:00,
2013-06-01 01:21:00,78.7,74.2,29.90,East,82,9.2,9.2,86,0.00,CLR,,0.00,WeatherDisplay:10.37,2013-06-01 06:21:00,
2013-06-01 01:26:00,78.8,74.3,29.90,East,94,11.5,11.5,86,0.00,CLR,,0.00,WeatherDisplay:10.37,2013-06-01 06:26:00,
2013-06-01 01:31:00,78.8,74.3,29.90,East,101,5.8,5.8,86,0.00,CLR,,0.00,WeatherDisplay:10.37,2013-06-01 06:31:00,
2013-06-01 01:36:00,78.7,74.2,29.89,ESE,119,6.9,6.9,86,0.00,CLR,,0.00,WeatherDisplay:10.37,2013-06-01 06:36:00,
2013-06-01 01:41:00,78.6,74.4,29.89,ESE,111,5.8,5.8,87,0.00,CLR,,0.00,WeatherDisplay:10.37,2013-06-01 06:41:00,
2013-06-01 01:46:00,78.5,74.3,29.88,ESE,113,6.9,6.9,87,0.00,CLR,,0.00,WeatherDisplay:10.37,2013-06-01 06:46:00,
2013-06-01 01:51:00,78.4,74.2,29.88,East,101,9.2,9.2,87,0.00,CLR,,0.00,WeatherDisplay:10.37,2013-06-01 06:51:00,
2013-06-01 01:56:00,78.3,74.1,29.88,East,94,8.1,8.1,87,0.00,CLR,,0.00,WeatherDisplay:10.37,2013-06-01 06:56:00,
2013-06-01 02:01:00,78.3,74.1,29.88,SE,134,3.5,3.5,87,0.00,CLR,,0.00,WeatherDisplay:10.37,2013-06-01 07:01:00,
2013-06-01 02:06:00,78.2,74.0,29.87,East,96,11.5,11.5,87,0.00,CLR,,0.00,WeatherDisplay:10.37,2013-06-01 07:06:00,
2013-06-01 02:11:00,78.1,73.9,29.87,East,94,5.0,5.0,87,0.00,CLR,,0.00,WeatherDisplay:10.37,2013-06-01 07:11:00,
2013-06-01 02:16:00,78.2,74.0,29.87,SE,130,11.5,11.5,87,0.00,CLR,,0.00,WeatherDisplay:10.37,2013-06-01 07:16:00,
2013-06-01 02:21:00,78.1,73.9,29.87,ESE,103,4.6,4.6,87,0.00,CLR,,0.00,WeatherDisplay:10.37,2013-06-01 07:21:00,
2013-06-01 02:26:00,77.6,73.8,29.87,East,88,5.8,5.8,88,0.00,CLR,,0.00,WeatherDisplay:10.37,2013-06-01 07:26:00,
2013-06-01 02:31:00,77.7,73.9,29.87,ESE,102,9.2,9.2,88,0.00,CLR,,0.00,WeatherDisplay:10.37,2013-06-01 07:31:00,
2013-06-01 02:36:00,77.8,74.0,29.86,East,83,5.8,5.8,88,0.00,CLR,,0.00,WeatherDisplay:10.37,2013-06-01 07:36:00,
2013-06-01 02:41:00,77.9,74.1,29.86,East,92,5.8,5.8,88,0.00,CLR,,0.00,WeatherDisplay:10.37,2013-06-01 07:41:00,
2013-06-01 02:46:00,78.0,74.2,29.87,ESE,109,6.0,6.0,88,0.00,CLR,,0.00,WeatherDisplay:10.37,2013-06-01 07:46:00,
2013-06-01 02:51:00,77.9,73.7,29.87,South,176,8.1,8.1,87,0.00,CLR,,0.00,WeatherDisplay:10.37,2013-06-01 07:51:00,
2013-06-01 02:56:00,77.6,73.8,29.86,East,93,6.9,6.9,88,0.00,CLR,,0.00,WeatherDisplay:10.37,2013-06-01 07:56:00,
2013-06-01 03:01:00,77.6,73.8,29.86,South,177,4.6,4.6,88,0.00,CLR,,0.00,WeatherDisplay:10.37,2013-06-01 08:01:00,
2013-06-01 03:06:00,77.7,73.9,29.87,ESE,110,8.1,8.1,88,0.00,CLR,,0.00,WeatherDisplay:10.37,2013-06-01 08:06:00,
2013-06-01 03:11:00,77.8,74.0,29.87,SW,218,4.6,4.6,88,0.00,CLR,,0.00,WeatherDisplay:10.37,2013-06-01 08:11:00,
2013-06-01 03:16:00,77.8,74.0,29.86,ESE,104,1.2,0.0,88,0.00,CLR,,0.00,WeatherDisplay:10.37,2013-06-01 08:16:00,
2013-06-01 03:21:00,77.7,73.9,29.86,SSE,164,3.5,3.5,88,0.00,CLR,,0.00,WeatherDisplay:10.37,2013-06-01 08:21:00,
2013-06-01 03:26:00,77.6,73.8,29.85,ENE,65,5.8,5.8,88,0.00,CLR,,0.00,WeatherDisplay:10.37,2013-06-01 08:26:00,
2013-06-01 03:31:00,77.5,73.7,29.85,East,90,3.5,3.5,88,0.00,CLR,,0.00,WeatherDisplay:10.37,2013-06-01 08:31:00,
2013-06-01 03:36:00,77.5,73.7,29.85,East,90,6.9,6.9,88,0.00,CLR,,0.00,WeatherDisplay:10.37,2013-06-01 08:36:00,
2013-06-01 03:41:00,77.5,73.7,29.86,East,90,4.6,4.6,88,0.00,CLR,,0.00,WeatherDisplay:10.37,2013-06-01 08:41:00,
2013-06-01 03:46:00,77.4,73.6,29.86,ENE,73,3.5,3.5,88,0.00,CLR,,0.00,WeatherDisplay:10.37,2013-06-01 08:46:00,
2013-06-01 03:51:00,77.3,73.5,29.86,ESE,110,2.3,2.3,88,0.00,CLR,,0.00,WeatherDisplay:10.37,2013-06-01 08:51:00,
2013-06-01 03:56:00,76.9,73.1,29.86,East,99,6.0,6.0,88,0.00,CLR,,0.00,WeatherDisplay:10.37,2013-06-01 08:56:00,
2013-06-01 04:01:00,76.6,73.1,29.86,SSW,200,4.6,4.6,89,0.00,CLR,,0.00,WeatherDisplay:10.37,2013-06-01 09:01:00,
2013-06-01 04:06:00,76.6,73.4,29.86,East,86,9.2,9.2,90,0.00,CLR,,0.00,WeatherDisplay:10.37,2013-06-01 09:06:00,
2013-06-01 04:11:00,76.7,73.2,29.86,East,101,3.5,3.5,89,0.00,CLR,,0.00,WeatherDisplay:10.37,2013-06-01 09:11:00,
2013-06-01 04:16:00,76.5,73.0,29.86,East,95,3.5,3.5,89,0.00,CLR,,0.00,WeatherDisplay:10.37,2013-06-01 09:16:00,
2013-06-01 04:21:00,76.6,73.4,29.86,ENE,67,3.5,3.5,90,0.00,CLR,,0.00,WeatherDisplay:10.37,2013-06-01 09:21:00,
2013-06-01 04:26:00,76.6,73.1,29.86,SSE,164,4.6,4.6,89,0.00,CLR,,0.00,WeatherDisplay:10.37,2013-06-01 09:26:00,
2013-06-01 04:31:00,76.7,73.2,29.86,SE,138,3.5,3.5,89,0.00,CLR,,0.00,WeatherDisplay:10.37,2013-06-01 09:31:00,
2013-06-01 04:36:00,76.5,73.0,29.87,ESE,113,5.8,5.8,89,0.00,CLR,,0.00,WeatherDisplay:10.37,2013-06-01 09:36:00,
2013-06-01 04:41:00,76.3,73.1,29.87,SSE,166,5.8,5.8,90,0.00,CLR,,0.00,WeatherDisplay:10.37,2013-06-01 09:41:00,
2013-06-01 04:46:00,76.4,73.2,29.87,East,99,3.5,3.5,90,0.00,CLR,,0.00,WeatherDisplay:10.37,2013-06-01 09:46:00,
2013-06-01 04:51:00,76.6,73.1,29.87,East,84,2.3,2.3,89,0.00,CLR,,0.00,WeatherDisplay:10.37,2013-06-01 09:51:00,
2013-06-01 04:56:00,76.7,73.2,29.87,East,89,5.8,5.8,89,0.00,CLR,,0.00,WeatherDisplay:10.37,2013-06-01 09:56:00,
2013-06-01 05:01:00,76.6,73.1,29.87,East,92,3.5,3.5,89,0.00,CLR,,0.00,WeatherDisplay:10.37,2013-06-01 10:01:00,
2013-06-01 05:06:00,76.3,72.8,29.87,East,94,3.5,3.5,89,0.00,CLR,,0.00,WeatherDisplay:10.37,2013-06-01 10:06:00,
2013-06-01 05:11:00,76.2,72.7,29.87,South,190,4.6,4.6,89,0.00,CLR,,0.00,WeatherDisplay:10.37,2013-06-01 10:11:00,
2013-06-01 05:16:00,76.3,73.1,29.87,SSW,213,10.4,10.4,90,0.00,CLR,,0.00,WeatherDisplay:10.37,2013-06-01 10:16:00,
2013-06-01 05:21:00,76.5,73.0,29.88,East,98,3.5,3.5,89,0.00,CLR,,0.00,WeatherDisplay:10.37,2013-06-01 10:21:00,
2013-06-01 05:26:00,76.7,73.2,29.88,SSW,193,3.5,3.5,89,0.00,CLR,,0.00,WeatherDisplay:10.37,2013-06-01 10:26:00,
2013-06-01 05:31:00,76.7,72.9,29.88,SE,128,3.5,3.5,88,0.00,CLR,,0.00,WeatherDisplay:10.37,2013-06-01 10:31:00,
2013-06-01 05:36:00,76.4,72.9,29.88,ESE,102,3.5,3.5,89,0.00,CLR,,0.00,WeatherDisplay:10.37,2013-06-01 10:36:00,
2013-06-01 05:41:00,76.1,72.6,29.88,East,94,4.6,4.6,89,0.00,CLR,,0.00,WeatherDisplay:10.37,2013-06-01 10:41:00,
2013-06-01 05:46:00,76.2,72.7,29.88,East,83,7.0,7.0,89,0.00,CLR,,0.00,WeatherDisplay:10.37,2013-06-01 10:46:00,
2013-06-01 05:51:00,76.4,72.9,29.88,East,98,6.9,6.9,89,0.00,CLR,,0.00,WeatherDisplay:10.37,2013-06-01 10:51:00,
2013-06-01 05:56:00,76.5,72.7,29.88,East,81,4.0,4.0,88,0.00,CLR,,0.00,WeatherDisplay:10.37,2013-06-01 10:56:00,
2013-06-01 06:01:00,76.2,72.7,29.88,East,86,6.0,6.0,89,0.00,CLR,,0.00,WeatherDisplay:10.37,2013-06-01 11:01:00,
2013-06-01 06:06:00,76.1,72.6,29.89,SE,133,1.2,1.4,89,0.00,CLR,,0.00,WeatherDisplay:10.37,2013-06-01 11:06:00,
2013-06-01 06:11:00,76.3,72.8,29.89,SSE,147,5.8,5.8,89,0.00,CLR,,0.00,WeatherDisplay:10.37,2013-06-01 11:11:00,
2013-06-01 06:16:00,76.5,73.0,29.89,ENE,66,3.5,3.5,89,0.00,CLR,,0.00,WeatherDisplay:10.37,2013-06-01 11:16:00,
2013-06-01 06:21:00,76.7,72.9,29.89,East,79,3.5,3.5,88,0.00,CLR,,0.00,WeatherDisplay:10.37,2013-06-01 11:21:00,
2013-06-01 06:26:00,76.6,72.8,29.89,SW,235,4.6,4.6,88,0.00,CLR,,0.00,WeatherDisplay:10.37,2013-06-01 11:26:00,
2013-06-01 06:31:00,76.4,72.6,29.89,East,91,4.6,4.6,88,0.00,CLR,,0.00,WeatherDisplay:10.37,2013-06-01 11:31:00,
2013-06-01 06:36:00,76.4,72.6,29.89,ESE,121,4.0,4.0,88,0.00,CLR,,0.00,WeatherDisplay:10.37,2013-06-01 11:36:00,
2013-06-01 06:41:00,76.7,72.9,29.89,East,83,5.8,5.8,88,0.00,CLR,,0.00,WeatherDisplay:10.37,2013-06-01 11:41:00,
2013-06-01 06:46:00,76.8,72.6,29.89,East,94,5.8,5.8,87,0.00,CLR,,0.00,WeatherDisplay:10.37,2013-06-01 11:46:00,
2013-06-01 06:51:00,76.6,72.8,29.89,East,91,6.9,6.9,88,0.00,CLR,,0.00,WeatherDisplay:10.37,2013-06-01 11:51:00,
2013-06-01 06:56:00,76.5,72.7,29.89,East,98,5.8,5.8,88,0.00,CLR,,0.00,WeatherDisplay:10.37,2013-06-01 11:56:00,
2013-06-01 07:01:00,76.6,72.8,29.89,ESE,102,6.0,6.0,88,0.00,CLR,,0.00,WeatherDisplay:10.37,2013-06-01 12:01:00,
2013-06-01 07:06:00,77.0,72.8,29.90,NE,55,5.8,5.8,87,0.00,CLR,,0.00,WeatherDisplay:10.37,2013-06-01 12:06:00,
2013-06-01 07:11:00,77.2,73.0,29.90,South,175,4.6,4.6,87,0.00,CLR,,0.00,WeatherDisplay:10.37,2013-06-01 12:11:00,
2013-06-01 07:16:00,77.4,73.2,29.90,East,80,5.8,5.8,87,0.00,CLR,,0.00,WeatherDisplay:10.37,2013-06-01 12:16:00,
2013-06-01 07:21:00,77.2,72.7,29.90,East,82,4.0,4.0,86,0.00,CLR,,0.00,WeatherDisplay:10.37,2013-06-01 12:21:00,
2013-06-01 07:26:00,76.9,72.7,29.90,ENE,57,5.8,5.8,87,0.00,CLR,,0.00,WeatherDisplay:10.37,2013-06-01 12:26:00,
2013-06-01 07:31:00,76.9,73.1,29.89,East,96,12.7,12.7,88,0.00,CLR,,0.00,WeatherDisplay:10.37,2013-06-01 12:31:00,
2013-06-01 07:36:00,77.2,73.0,29.89,East,98,9.2,9.2,87,0.00,CLR,,0.00,WeatherDisplay:10.37,2013-06-01 12:36:00,
2013-06-01 07:42:00,77.5,73.3,29.90,SSE,164,3.5,3.5,87,0.00,CLR,,0.00,WeatherDisplay:10.37,2013-06-01 12:42:00,
2013-06-01 07:47:00,77.7,73.2,29.90,East,91,3.5,3.5,86,0.00,CLR,,0.00,WeatherDisplay:10.37,2013-06-01 12:47:00,
2013-06-01 07:52:00,77.9,73.4,29.90,East,92,3.5,3.5,86,0.00,CLR,,0.00,WeatherDisplay:10.37,2013-06-01 12:52:00,
2013-06-01 07:57:00,77.8,73.3,29.91,SSE,163,2.3,2.3,86,0.00,CLR,,0.00,WeatherDisplay:10.37,2013-06-01 12:57:00,
2013-06-01 08:02:00,77.5,73.3,29.91,South,173,3.5,3.5,87,0.00,CLR,,0.00,WeatherDisplay:10.37,2013-06-01 13:02:00,
2013-06-01 08:07:00,77.5,73.3,29.90,SSW,211,1.2,1.5,87,0.00,CLR,,0.00,WeatherDisplay:10.37,2013-06-01 13:07:00,
2013-06-01 08:12:00,77.6,73.4,29.90,South,182,3.5,3.5,87,0.00,CLR,,0.00,WeatherDisplay:10.37,2013-06-01 13:12:00,
2013-06-01 08:17:00,77.9,73.4,29.90,SSE,149,3.5,3.5,86,0.00,CLR,,0.00,WeatherDisplay:10.37,2013-06-01 13:17:00,
2013-06-01 08:22:00,78.0,73.5,29.90,East,96,4.6,4.6,86,0.00,CLR,,0.00,WeatherDisplay:10.37,2013-06-01 13:22:00,
2013-06-01 08:27:00,78.2,73.3,29.90,SSW,196,3.5,3.5,85,0.00,CLR,,0.00,WeatherDisplay:10.37,2013-06-01 13:27:00,
2013-06-01 08:32:00,78.3,73.4,29.90,SSW,198,7.0,7.0,85,0.00,CLR,,0.00,WeatherDisplay:10.37,2013-06-01 13:32:00,
2013-06-01 08:37:00,78.5,73.6,29.91,SSW,197,3.5,3.5,85,0.00,CLR,,0.00,WeatherDisplay:10.37,2013-06-01 13:37:00,
2013-06-01 08:42:00,78.3,73.4,29.91,SW,220,4.6,4.6,85,0.00,CLR,,0.00,WeatherDisplay:10.37,2013-06-01 13:42:00,
2013-06-01 08:47:00,78.1,73.2,29.91,ESE,111,3.5,3.5,85,0.00,CLR,,0.00,WeatherDisplay:10.37,2013-06-01 13:47:00,
2013-06-01 08:52:00,78.2,73.3,29.91,SSW,196,4.6,4.6,85,0.00,CLR,,0.00,WeatherDisplay:10.37,2013-06-01 13:52:00,
2013-06-01 08:57:00,78.4,73.5,29.91,SW,217,3.5,3.5,85,0.00,CLR,,0.00,WeatherDisplay:10.37,2013-06-01 13:57:00,
2013-06-01 09:02:00,78.5,73.6,29.91,WSW,239,4.0,4.0,85,0.00,CLR,,0.00,WeatherDisplay:10.37,2013-06-01 14:02:00,
2013-06-01 09:07:00,78.7,73.8,29.91,East,83,1.2,0.0,85,0.00,CLR,,0.00,WeatherDisplay:10.37,2013-06-01 14:07:00,
2013-06-01 09:12:00,78.7,73.8,29.91,East,88,3.5,3.5,85,0.00,CLR,,0.00,WeatherDisplay:10.37,2013-06-01 14:12:00,
2013-06-01 09:17:00,78.7,73.5,29.91,ESE,106,3.5,3.5,84,0.00,CLR,,0.00,WeatherDisplay:10.37,2013-06-01 14:17:00,
2013-06-01 09:22:00,78.7,73.8,29.92,SSW,194,5.8,5.8,85,0.00,CLR,,0.00,WeatherDisplay:10.37,2013-06-01 14:22:00,
2013-06-01 09:27:00,78.7,73.8,29.92,East,101,4.0,4.0,85,0.00,CLR,,0.00,WeatherDisplay:10.37,2013-06-01 14:27:00,
2013-06-01 09:32:00,78.9,73.7,29.91,SE,128,3.5,3.5,84,0.00,CLR,,0.00,WeatherDisplay:10.37,2013-06-01 14:32:00,
2013-06-01 09:37:00,79.2,73.9,29.91,East,95,3.5,3.5,84,0.00,CLR,,0.00,WeatherDisplay:10.37,2013-06-01 14:37:00,
2013-06-01 09:42:00,79.5,73.9,29.92,SW,226,5.8,5.8,83,0.00,CLR,,0.00,WeatherDisplay:10.37,2013-06-01 14:42:00,
2013-06-01 09:47:00,79.4,73.8,29.92,ESE,112,4.6,4.6,83,0.00,CLR,,0.00,WeatherDisplay:10.37,2013-06-01 14:47:00,
2013-06-01 09:52:00,79.6,74.0,29.92,SSW,207,4.6,4.6,83,0.00,CLR,,0.00,WeatherDisplay:10.37,2013-06-01 14:52:00,
2013-06-01 09:57:00,79.9,73.9,29.92,ESE,117,5.8,5.8,82,0.00,CLR,,0.00,WeatherDisplay:10.37,2013-06-01 14:57:00,
2013-06-01 10:02:00,79.7,73.7,29.92,South,188,3.5,3.5,82,0.00,CLR,,0.00,WeatherDisplay:10.37,2013-06-01 15:02:00,
2013-06-01 10:07:00,79.7,74.1,29.92,East,94,6.9,6.9,83,0.00,CLR,,0.00,WeatherDisplay:10.37,2013-06-01 15:07:00,
2013-06-01 10:12:00,80.1,74.1,29.92,SE,132,5.8,5.8,82,0.00,CLR,,0.00,WeatherDisplay:10.37,2013-06-01 15:12:00,
2013-06-01 10:17:00,80.5,73.8,29.92,SSE,168,8.1,8.1,80,0.00,CLR,,0.00,WeatherDisplay:10.37,2013-06-01 15:17:00,
2013-06-01 10:22:00,80.5,73.8,29.91,ESE,115,4.6,4.6,80,0.00,CLR,,0.00,WeatherDisplay:10.37,2013-06-01 15:22:00,
2013-06-01 10:27:00,80.7,74.0,29.91,ENE,77,3.5,3.5,80,0.00,CLR,,0.00,WeatherDisplay:10.37,2013-06-01 15:27:00,
2013-06-01 10:32:00,80.7,73.6,29.91,ENE,64,6.0,6.0,79,0.00,CLR,,0.00,WeatherDisplay:10.37,2013-06-01 15:32:00,
2013-06-01 10:37:00,80.4,73.3,29.92,SSW,205,11.5,11.5,79,0.00,CLR,,0.00,WeatherDisplay:10.37,2013-06-01 15:37:00,
2013-06-01 10:42:00,80.5,73.8,29.92,SW,225,7.0,7.0,80,0.00,CLR,,0.00,WeatherDisplay:10.37,2013-06-01 15:42:00,
2013-06-01 10:47:00,81.2,74.4,29.91,SSW,210,9.0,9.0,80,0.00,CLR,,0.00,WeatherDisplay:10.37,2013-06-01 15:47:00,
2013-06-01 10:52:00,81.8,74.6,29.91,East,89,11.0,11.0,79,0.00,CLR,,0.00,WeatherDisplay:10.37,2013-06-01 15:52:00,
2013-06-01 10:57:00,82.5,74.2,29.91,WSW,240,9.2,9.2,76,0.00,CLR,,0.00,WeatherDisplay:10.37,2013-06-01 15:57:00,
2013-06-01 11:02:00,82.7,74.4,29.91,NE,46,3.5,3.5,76,0.00,CLR,,0.00,WeatherDisplay:10.37,2013-06-01 16:02:00,
2013-06-01 11:07:00,82.8,73.7,29.90,East,92,13.8,13.8,74,0.00,CLR,,0.00,WeatherDisplay:10.37,2013-06-01 16:07:00,
2013-06-01 11:12:00,82.9,74.2,29.91,WNW,292,10.0,10.0,75,0.00,CLR,,0.00,WeatherDisplay:10.37,2013-06-01 16:12:00,
2013-06-01 11:17:00,83.0,74.3,29.91,SE,146,10.4,10.4,75,0.00,CLR,,0.00,WeatherDisplay:10.37,2013-06-01 16:17:00,
2013-06-01 11:22:00,82.7,74.0,29.91,SE,127,5.8,5.8,75,0.00,CLR,,0.00,WeatherDisplay:10.37,2013-06-01 16:22:00,
2013-06-01 11:27:00,82.8,74.1,29.91,West,279,5.0,5.0,75,0.00,CLR,,0.00,WeatherDisplay:10.37,2013-06-01 16:27:00,
2013-06-01 11:32:00,82.8,74.1,29.91,NW,304,5.8,5.8,75,0.00,CLR,,0.00,WeatherDisplay:10.37,2013-06-01 16:32:00,
2013-06-01 11:37:00,82.7,74.0,29.90,SW,222,6.9,6.9,75,0.00,CLR,,0.00,WeatherDisplay:10.37,2013-06-01 16:37:00,
2013-06-01 11:42:00,82.9,73.8,29.90,SW,219,6.9,6.9,74,0.00,CLR,,0.00,WeatherDisplay:10.37,2013-06-01 16:42:00,
2013-06-01 11:47:00,83.4,74.2,29.90,SSW,210,6.0,6.0,74,0.00,CLR,,0.00,WeatherDisplay:10.37,2013-06-01 16:47:00,
2013-06-01 11:52:00,83.2,74.0,29.91,NW,304,14.0,14.0,74,0.00,CLR,,0.00,WeatherDisplay:10.37,2013-06-01 16:52:00,
2013-06-01 11:57:00,80.6,68.2,29.93,NNW,329,21.9,21.9,66,0.00,CLR,,0.00,WeatherDisplay:10.37,2013-06-01 16:57:00,
2013-06-01 12:02:00,76.1,65.6,29.95,West,267,26.5,26.5,70,0.00,CLR,,0.00,WeatherDisplay:10.37,2013-06-01 17:02:00,
2013-06-01 12:07:00,73.0,65.7,29.95,NNW,327,15.0,15.0,78,0.00,CLR,,0.00,WeatherDisplay:10.37,2013-06-01 17:07:00,
2013-06-01 12:12:00,71.2,65.8,29.96,NW,310,11.5,11.5,83,0.00,CLR,,0.00,WeatherDisplay:10.37,2013-06-01 17:12:00,
2013-06-01 12:17:00,70.3,65.9,29.95,WNW,301,4.0,4.0,86,0.02,RA,,0.02,WeatherDisplay:10.37,2013-06-01 17:17:00,
2013-06-01 12:22:00,69.7,66.0,29.95,NW,317,11.5,11.5,88,0.04,RA,,0.05,WeatherDisplay:10.37,2013-06-01 17:22:00,
2013-06-01 12:27:00,69.5,66.4,29.95,NW,319,4.0,4.0,90,0.07,RA,,0.07,WeatherDisplay:10.37,2013-06-01 17:27:00,
2013-06-01 12:32:00,69.2,66.1,29.96,WNW,288,5.0,5.0,90,0.08,RA,,0.08,WeatherDisplay:10.37,2013-06-01 17:32:00,
2013-06-01 12:37:00,68.8,66.1,29.97,NW,306,4.0,4.0,91,0.09,RA,,0.09,WeatherDisplay:10.37,2013-06-01 17:37:00,
2013-06-01 12:42:00,68.7,66.0,29.96,NW,325,6.0,6.0,91,0.10,RA,,0.10,WeatherDisplay:10.37,2013-06-01 17:42:00,
2013-06-01 12:47:00,68.5,66.1,29.96,WNW,294,4.6,4.6,92,0.11,RA,,0.11,WeatherDisplay:10.37,2013-06-01 17:47:00,
2013-06-01 12:52:00,68.4,66.0,29.97,NNW,338,4.6,4.6,92,0.12,RA,,0.12,WeatherDisplay:10.37,2013-06-01 17:52:00,
2013-06-01 12:57:00,68.3,66.2,29.97,NNW,332,3.5,3.5,93,0.13,RA,,0.13,WeatherDisplay:10.37,2013-06-01 17:57:00,
2013-06-01 13:02:00,68.2,66.1,29.97,West,279,3.5,3.5,93,0.14,RA,,0.14,WeatherDisplay:10.37,2013-06-01 18:02:00,
2013-06-01 13:07:00,68.1,66.0,29.97,West,279,3.5,0.0,93,0.16,RA,,0.16,WeatherDisplay:10.37,2013-06-01 18:07:00,
2013-06-01 13:12:00,68.0,65.9,29.98,West,279,0.0,0.0,93,0.17,RA,,0.18,WeatherDisplay:10.37,2013-06-01 18:12:00,
2013-06-01 13:17:00,68.1,66.3,29.98,West,281,2.0,2.0,94,0.16,RA,,0.19,WeatherDisplay:10.37,2013-06-01 18:17:00,
2013-06-01 13:22:00,68.3,66.5,29.97,WNW,286,2.0,2.0,94,0.16,RA,,0.20,WeatherDisplay:10.37,2013-06-01 18:22:00,
2013-06-01 13:27:00,68.3,66.5,29.96,WNW,286,0.0,0.0,94,0.15,RA,,0.21,WeatherDisplay:10.37,2013-06-01 18:27:00,
2013-06-01 13:32:00,68.5,66.7,29.95,West,279,3.5,3.5,94,0.14,RA,,0.22,WeatherDisplay:10.37,2013-06-01 18:32:00,
2013-06-01 13:37:00,68.6,66.8,29.95,East,93,0.0,0.0,94,0.13,RA,,0.22,WeatherDisplay:10.37,2013-06-01 18:37:00,
2013-06-01 13:42:00,68.8,67.0,29.94,East,92,0.0,0.0,94,0.12,,,0.22,WeatherDisplay:10.37,2013-06-01 18:42:00,
2013-06-01 13:47:00,68.8,67.0,29.94,East,96,0.0,0.0,94,0.12,RA,,0.23,WeatherDisplay:10.37,2013-06-01 18:47:00,
2013-06-01 13:52:00,68.9,67.1,29.93,East,94,3.0,3.0,94,0.11,RA,,0.23,WeatherDisplay:10.37,2013-06-01 18:52:00,
2013-06-01 13:57:00,68.8,67.0,29.94,East,95,3.5,3.5,94,0.10,,,0.23,WeatherDisplay:10.37,2013-06-01 18:57:00,
2013-06-01 14:02:00,69.1,67.3,29.94,East,79,2.3,2.3,94,0.09,CLR,,0.23,WeatherDisplay:10.37,2013-06-01 19:02:00,
2013-06-01 14:07:00,69.2,67.4,29.93,East,94,4.0,4.0,94,0.07,CLR,,0.23,WeatherDisplay:10.37,2013-06-01 19:07:00,
2013-06-01 14:12:00,69.3,67.5,29.92,ESE,110,3.5,3.5,94,0.06,CLR,,0.23,WeatherDisplay:10.37,2013-06-01 19:12:00,
2013-06-01 14:17:00,69.2,67.4,29.92,East,91,3.5,3.5,94,0.05,CLR,,0.23,WeatherDisplay:10.37,2013-06-01 19:17:00,
2013-06-01 14:22:00,69.3,67.5,29.92,East,82,3.5,3.5,94,0.03,CLR,,0.23,WeatherDisplay:10.37,2013-06-01 19:22:00,
2013-06-01 14:27:00,69.5,67.7,29.92,East,84,2.3,2.3,94,0.03,RA,,0.24,WeatherDisplay:10.37,2013-06-01 19:27:00,
2013-06-01 14:32:00,69.5,67.7,29.92,East,95,5.8,5.8,94,0.02,RA,,0.24,WeatherDisplay:10.37,2013-06-01 19:32:00,
2013-06-01 14:37:00,69.3,67.5,29.92,East,97,3.5,3.5,94,0.03,RA,,0.25,WeatherDisplay:10.37,2013-06-01 19:37:00,
2013-06-01 14:42:00,69.3,67.5,29.92,ESE,106,5.0,5.0,94,0.03,RA,,0.25,WeatherDisplay:10.37,2013-06-01 19:42:00,
2013-06-01 14:47:00,69.5,67.7,29.90,East,95,6.0,6.0,94,0.03,RA,,0.26,WeatherDisplay:10.37,2013-06-01 19:47:00,
2013-06-01 14:52:00,69.5,67.7,29.90,East,80,3.5,3.5,94,0.03,RA,,0.26,WeatherDisplay:10.37,2013-06-01 19:52:00,
2013-06-01 14:57:00,69.5,67.7,29.91,SSE,153,2.3,0.0,94,0.03,CLR,,0.26,WeatherDisplay:10.37,2013-06-01 19:57:00,
2013-06-01 15:02:00,69.7,67.9,29.91,East,90,3.5,3.5,94,0.03,CLR,,0.26,WeatherDisplay:10.37,2013-06-01 20:02:00,
2013-06-01 15:07:00,70.1,68.3,29.89,East,83,3.5,3.5,94,0.03,CLR,,0.26,WeatherDisplay:10.37,2013-06-01 20:07:00,
2013-06-01 15:12:00,70.3,68.5,29.89,ENE,76,5.8,5.8,94,0.03,CLR,,0.26,WeatherDisplay:10.37,2013-06-01 20:12:00,
2013-06-01 15:17:00,70.4,68.3,29.88,ESE,107,5.0,5.0,93,0.03,CLR,,0.26,WeatherDisplay:10.37,2013-06-01 20:17:00,
2013-06-01 15:22:00,70.2,68.1,29.88,East,85,3.5,3.5,93,0.03,CLR,,0.26,WeatherDisplay:10.37,2013-06-01 20:22:00,
2013-06-01 15:27:00,70.5,68.7,29.88,East,92,3.5,3.5,94,0.02,CLR,,0.26,WeatherDisplay:10.37,2013-06-01 20:27:00,
2013-06-01 15:32:00,70.8,69.0,29.88,East,87,3.5,3.5,94,0.02,CLR,,0.26,WeatherDisplay:10.37,2013-06-01 20:32:00,
2013-06-01 15:37:00,71.0,68.9,29.87,ESE,102,6.0,6.0,93,0.01,CLR,,0.26,WeatherDisplay:10.37,2013-06-01 20:37:00,
2013-06-01 15:42:00,70.9,68.8,29.86,East,96,4.6,4.6,93,0.01,CLR,,0.26,WeatherDisplay:10.37,2013-06-01 20:42:00,
2013-06-01 15:47:00,71.0,68.9,29.86,East,90,3.5,3.5,93,0.00,CLR,,0.26,WeatherDisplay:10.37,2013-06-01 20:47:00,
2013-06-01 15:52:00,71.2,69.1,29.86,ENE,78,3.5,3.5,93,0.00,CLR,,0.26,WeatherDisplay:10.37,2013-06-01 20:52:00,
2013-06-01 15:57:00,71.4,69.3,29.85,ENE,69,2.3,2.3,93,0.00,CLR,,0.26,WeatherDisplay:10.37,2013-06-01 20:57:00,
2013-06-01 16:02:00,71.5,69.4,29.86,East,90,2.3,2.3,93,0.00,CLR,,0.26,WeatherDisplay:10.37,2013-06-01 21:02:00,
2013-06-01 16:07:00,71.5,69.1,29.86,ESE,104,4.0,4.0,92,0.00,CLR,,0.26,WeatherDisplay:10.37,2013-06-01 21:07:00,
2013-06-01 16:12:00,71.7,69.3,29.85,South,185,1.2,1.2,92,0.00,CLR,,0.26,WeatherDisplay:10.37,2013-06-01 21:12:00,
2013-06-01 16:17:00,71.9,69.4,29.85,East,96,4.6,4.6,92,0.00,CLR,,0.26,WeatherDisplay:10.37,2013-06-01 21:17:00,
2013-06-01 16:22:00,72.0,69.5,29.84,East,101,3.5,3.5,92,0.00,CLR,,0.26,WeatherDisplay:10.37,2013-06-01 21:22:00,
2013-06-01 16:27:00,72.0,69.5,29.84,ESE,103,3.5,3.5,92,0.00,CLR,,0.26,WeatherDisplay:10.37,2013-06-01 21:27:00,
2013-06-01 16:32:00,72.1,69.6,29.84,East,86,6.9,6.9,92,0.00,CLR,,0.26,WeatherDisplay:10.37,2013-06-01 21:32:00,
2013-06-01 16:37:00,72.2,69.7,29.84,East,94,4.6,4.6,92,0.00,CLR,,0.26,WeatherDisplay:10.37,2013-06-01 21:37:00,
2013-06-01 16:42:00,72.4,69.6,29.85,East,82,3.0,3.0,91,0.00,CLR,,0.26,WeatherDisplay:10.37,2013-06-01 21:42:00,
2013-06-01 16:47:00,72.6,69.8,29.85,ESE,109,4.6,4.6,91,0.00,CLR,,0.26,WeatherDisplay:10.37,2013-06-01 21:47:00,
2013-06-01 16:52:00,72.5,69.7,29.85,ESE,119,1.2,0.0,91,0.00,CLR,,0.26,WeatherDisplay:10.37,2013-06-01 21:52:00,
2013-06-01 16:57:00,72.5,69.7,29.85,ESE,104,3.5,3.5,91,0.00,CLR,,0.26,WeatherDisplay:10.37,2013-06-01 21:57:00,
2013-06-01 17:02:00,72.6,69.8,29.85,East,96,1.2,0.0,91,0.00,CLR,,0.26,WeatherDisplay:10.37,2013-06-01 22:02:00,
2013-06-01 17:07:00,72.7,69.9,29.84,East,95,3.5,3.5,91,0.00,CLR,,0.26,WeatherDisplay:10.37,2013-06-01 22:07:00,
2013-06-01 17:12:00,72.8,70.0,29.84,East,84,3.0,3.0,91,0.00,CLR,,0.26,WeatherDisplay:10.37,2013-06-01 22:12:00,
2013-06-01 17:17:00,72.7,69.9,29.83,East,96,1.2,0.0,91,0.00,CLR,,0.26,WeatherDisplay:10.37,2013-06-01 22:17:00,
2013-06-01 17:22:00,72.9,70.1,29.83,East,96,0.0,0.0,91,0.00,CLR,,0.26,WeatherDisplay:10.37,2013-06-01 22:22:00,
2013-06-01 17:27:00,73.0,70.2,29.83,East,95,1.2,1.2,91,0.00,CLR,,0.26,WeatherDisplay:10.37,2013-06-01 22:27:00,
2013-06-01 17:32:00,73.0,70.5,29.80,East,96,1.0,0.0,92,0.00,CLR,,0.26,WeatherDisplay:10.37,2013-06-01 22:32:00,
2013-06-01 17:37:00,73.0,70.5,29.79,East,93,1.2,1.2,92,0.00,CLR,,0.26,WeatherDisplay:10.37,2013-06-01 22:37:00,
2013-06-01 17:42:00,73.0,70.5,29.85,NNW,337,5.8,5.8,92,0.00,CLR,,0.26,WeatherDisplay:10.37,2013-06-01 22:42:00,
2013-06-01 17:47:00,72.8,70.3,29.85,NW,319,6.9,6.9,92,0.00,CLR,,0.26,WeatherDisplay:10.37,2013-06-01 22:47:00,
2013-06-01 17:52:00,72.6,70.1,29.84,NW,315,5.8,5.8,92,0.00,CLR,,0.26,WeatherDisplay:10.37,2013-06-01 22:52:00,
2013-06-01 17:57:00,72.4,69.9,29.84,NW,310,3.5,3.5,92,0.00,CLR,,0.26,WeatherDisplay:10.37,2013-06-01 22:57:00,
2013-06-01 18:02:00,72.1,69.6,29.85,WNW,284,3.5,3.5,92,0.00,CLR,,0.26,WeatherDisplay:10.37,2013-06-01 23:02:00,
2013-06-01 18:07:00,71.9,69.4,29.84,West,273,3.5,3.5,92,0.00,CLR,,0.26,WeatherDisplay:10.37,2013-06-01 23:07:00,
2013-06-01 18:12:00,71.7,69.3,29.84,WNW,286,0.0,0.0,92,0.00,CLR,,0.26,WeatherDisplay:10.37,2013-06-01 23:12:00,
2013-06-01 18:17:00,71.8,69.3,29.83,WNW,294,0.0,0.0,92,0.00,CLR,,0.26,WeatherDisplay:10.37,2013-06-01 23:17:00,
2013-06-01 18:22:00,71.8,69.3,29.84,WNW,294,0.0,0.0,92,0.00,CLR,,0.26,WeatherDisplay:10.37,2013-06-01 23:22:00,
2013-06-01 18:27:00,71.9,69.4,29.86,NW,311,3.5,3.6,92,0.00,CLR,,0.26,WeatherDisplay:10.37,2013-06-01 23:27:00,
2013-06-01 18:32:00,71.9,69.4,29.88,WNW,290,8.1,8.1,92,0.00,CLR,,0.26,WeatherDisplay:10.37,2013-06-01 23:32:00,
2013-06-01 18:37:00,71.7,69.3,29.87,West,268,6.9,6.9,92,0.00,CLR,,0.26,WeatherDisplay:10.37,2013-06-01 23:37:00,
2013-06-01 18:42:00,71.5,69.1,29.86,WNW,284,3.5,3.5,92,0.00,CLR,,0.26,WeatherDisplay:10.37,2013-06-01 23:42:00,
2013-06-01 18:47:00,71.3,68.9,29.86,NW,317,3.5,0.0,92,0.00,CLR,,0.26,WeatherDisplay:10.37,2013-06-01 23:47:00,
2013-06-01 18:52:00,71.1,68.7,29.88,WNW,289,6.9,6.9,92,0.00,CLR,,0.26,WeatherDisplay:10.37,2013-06-01 23:52:00,
2013-06-01 18:57:00,71.0,68.6,29.87,NW,306,2.3,2.3,92,0.00,CLR,,0.26,WeatherDisplay:10.37,2013-06-01 23:57:00,
2013-06-01 19:02:00,70.9,68.5,29.86,NE,37,1.0,1.0,92,0.00,CLR,,0.26,WeatherDisplay:10.37,2013-06-02 00:02:00,
2013-06-01 19:07:00,71.0,68.6,29.86,NE,37,0.0,0.0,92,0.00,CLR,,0.26,WeatherDisplay:10.37,2013-06-02 00:07:00,
2013-06-01 19:12:00,71.0,68.6,29.86,NE,37,0.0,0.3,92,0.00,CLR,,0.26,WeatherDisplay:10.37,2013-06-02 00:12:00,
2013-06-01 19:17:00,70.8,68.4,29.87,WNW,296,1.2,1.2,92,0.00,CLR,,0.26,WeatherDisplay:10.37,2013-06-02 00:17:00,
2013-06-01 19:22:00,70.6,68.2,29.87,NNW,338,1.0,1.0,92,0.00,CLR,,0.26,WeatherDisplay:10.37,2013-06-02 00:22:00,
2013-06-01 19:27:00,70.5,68.1,29.87,NNW,337,1.2,1.2,92,0.00,CLR,,0.26,WeatherDisplay:10.37,2013-06-02 00:27:00,
2013-06-01 19:32:00,70.4,68.0,29.87,NNW,337,0.0,0.0,92,0.00,CLR,,0.26,WeatherDisplay:10.37,2013-06-02 00:32:00,
2013-06-01 19:37:00,70.3,67.9,29.88,NNW,337,0.0,0.0,92,0.00,CLR,,0.26,WeatherDisplay:10.37,2013-06-02 00:37:00,
2013-06-01 19:42:00,70.3,67.9,29.88,NNW,336,0.0,0.0,92,0.00,CLR,,0.26,WeatherDisplay:10.37,2013-06-02 00:42:00,
2013-06-01 19:48:00,70.4,68.3,29.88,NNW,337,0.0,0.0,93,0.00,CLR,,0.26,WeatherDisplay:10.37,2013-06-02 00:48:00,
2013-06-01 19:53:00,70.4,68.3,29.89,NNW,337,0.0,0.0,93,0.00,CLR,,0.26,WeatherDisplay:10.37,2013-06-02 00:53:00,
2013-06-01 19:58:00,70.5,68.4,29.88,NNW,337,0.0,0.0,93,0.00,CLR,,0.26,WeatherDisplay:10.37,2013-06-02 00:58:00,
2013-06-01 20:03:00,70.6,68.5,29.88,NNW,339,2.3,0.0,93,0.00,CLR,,0.26,WeatherDisplay:10.37,2013-06-02 01:03:00,
2013-06-01 20:08:00,70.6,68.5,29.88,NNW,338,0.0,0.0,93,0.00,CLR,,0.26,WeatherDisplay:10.37,2013-06-02 01:08:00,
2013-06-01 20:13:00,70.6,68.5,29.89,NNW,339,0.0,0.0,93,0.00,CLR,,0.26,WeatherDisplay:10.37,2013-06-02 01:13:00,
2013-06-01 20:18:00,70.6,68.5,29.89,NNW,338,0.0,0.0,93,0.00,CLR,,0.26,WeatherDisplay:10.37,2013-06-02 01:18:00,
2013-06-01 20:23:00,70.5,68.4,29.89,NNW,338,0.0,0.0,93,0.00,CLR,,0.26,WeatherDisplay:10.37,2013-06-02 01:23:00,
2013-06-01 20:28:00,70.5,68.4,29.89,NNW,339,0.0,0.0,93,0.00,CLR,,0.26,WeatherDisplay:10.37,2013-06-02 01:28:00,
2013-06-01 20:33:00,70.3,68.2,29.90,NNW,339,0.0,0.0,93,0.00,CLR,,0.26,WeatherDisplay:10.37,2013-06-02 01:33:00,
2013-06-01 20:38:00,70.2,68.1,29.89,NNW,339,0.0,0.0,93,0.00,CLR,,0.26,WeatherDisplay:10.37,2013-06-02 01:38:00,
2013-06-01 20:43:00,70.2,68.1,29.89,NNW,338,0.0,0.0,93,0.00,CLR,,0.26,WeatherDisplay:10.37,2013-06-02 01:43:00,
2013-06-01 20:48:00,70.1,68.3,29.89,NNW,339,0.0,0.0,94,0.00,CLR,,0.26,WeatherDisplay:10.37,2013-06-02 01:48:00,
2013-06-01 20:53:00,70.1,68.3,29.89,NNE,15,0.0,0.0,94,0.00,CLR,,0.26,WeatherDisplay:10.37,2013-06-02 01:53:00,
2013-06-01 20:58:00,70.2,68.4,29.90,NNE,15,0.0,0.0,94,0.00,CLR,,0.26,WeatherDisplay:10.37,2013-06-02 01:58:00,
2013-06-01 21:03:00,70.1,68.3,29.91,NNE,15,0.0,0.0,94,0.00,CLR,,0.26,WeatherDisplay:10.37,2013-06-02 02:03:00,
2013-06-01 21:08:00,70.0,68.2,29.91,NNE,15,0.0,0.0,94,0.00,CLR,,0.26,WeatherDisplay:10.37,2013-06-02 02:08:00,
2013-06-01 21:13:00,69.9,68.1,29.91,NNE,15,0.0,0.0,94,0.00,CLR,,0.26,WeatherDisplay:10.37,2013-06-02 02:13:00,
2013-06-01 21:18:00,70.0,68.2,29.91,NNE,14,0.0,0.0,94,0.00,CLR,,0.26,WeatherDisplay:10.37,2013-06-02 02:18:00,
2013-06-01 21:23:00,69.9,68.1,29.91,NNE,15,0.0,0.0,94,0.00,CLR,,0.26,WeatherDisplay:10.37,2013-06-02 02:23:00,
2013-06-01 21:28:00,70.0,68.2,29.92,NNE,15,0.0,0.0,94,0.00,CLR,,0.26,WeatherDisplay:10.37,2013-06-02 02:28:00,
2013-06-01 21:33:00,69.9,68.1,29.92,NNE,15,0.0,0.0,94,0.00,CLR,,0.26,WeatherDisplay:10.37,2013-06-02 02:33:00,
2013-06-01 21:38:00,69.9,68.1,29.92,NNE,15,0.0,0.0,94,0.00,CLR,,0.26,WeatherDisplay:10.37,2013-06-02 02:38:00,
2013-06-01 21:43:00,69.9,68.1,29.93,NNE,14,0.0,0.0,94,0.00,CLR,,0.26,WeatherDisplay:10.37,2013-06-02 02:43:00,
2013-06-01 21:48:00,69.9,68.1,29.93,NNE,15,0.0,0.0,94,0.00,CLR,,0.26,WeatherDisplay:10.37,2013-06-02 02:48:00,
2013-06-01 21:53:00,69.8,68.0,29.92,NNE,15,0.0,0.0,94,0.00,CLR,,0.26,WeatherDisplay:10.37,2013-06-02 02:53:00,
2013-06-01 21:58:00,69.8,68.0,29.93,NNE,15,0.0,0.0,94,0.00,CLR,,0.26,WeatherDisplay:10.37,2013-06-02 02:58:00,
2013-06-01 22:03:00,69.7,67.9,29.93,NNE,15,0.0,0.0,94,0.00,CLR,,0.26,WeatherDisplay:10.37,2013-06-02 03:03:00,
2013-06-01 22:08:00,69.8,68.3,29.93,NNE,14,0.0,0.0,95,0.00,CLR,,0.26,WeatherDisplay:10.37,2013-06-02 03:08:00,
2013-06-01 22:13:00,69.8,68.3,29.93,NNE,15,0.0,0.0,95,0.00,CLR,,0.26,WeatherDisplay:10.37,2013-06-02 03:13:00,
2013-06-01 22:18:00,69.8,68.3,29.92,NNE,15,0.0,0.0,95,0.00,CLR,,0.26,WeatherDisplay:10.37,2013-06-02 03:18:00,
2013-06-01 22:23:00,69.9,68.4,29.92,NNE,15,0.0,0.0,95,0.00,CLR,,0.26,WeatherDisplay:10.37,2013-06-02 03:23:00,
2013-06-01 22:28:00,69.9,68.4,29.92,NNE,15,0.0,0.0,95,0.00,CLR,,0.26,WeatherDisplay:10.37,2013-06-02 03:28:00,
2013-06-01 22:33:00,69.7,68.2,29.92,NNE,15,0.0,0.0,95,0.00,CLR,,0.26,WeatherDisplay:10.37,2013-06-02 03:33:00,
2013-06-01 22:38:00,69.7,68.2,29.92,NNE,15,0.0,0.0,95,0.00,CLR,,0.26,WeatherDisplay:10.37,2013-06-02 03:38:00,
2013-06-01 22:43:00,69.6,68.1,29.91,NNE,15,0.0,0.0,95,0.01,RA,,0.27,WeatherDisplay:10.37,2013-06-02 03:43:00,
2013-06-01 22:48:00,69.7,68.2,29.91,NNE,15,0.0,0.0,95,0.01,RA,,0.27,WeatherDisplay:10.37,2013-06-02 03:48:00,
2013-06-01 22:53:00,69.7,68.2,29.92,NNE,15,0.0,0.0,95,0.01,CLR,,0.27,WeatherDisplay:10.37,2013-06-02 03:53:00,
2013-06-01 22:58:00,69.7,68.2,29.92,NNE,15,0.0,0.0,95,0.01,CLR,,0.27,WeatherDisplay:10.37,2013-06-02 03:58:00,
2013-06-01 23:01:00,69.8,68.3,29.92,NNE,14,0.0,0.0,95,0.01,CLR,,0.27,WeatherDisplay:10.37,2013-06-02 04:01:00,
2013-06-01 23:06:00,69.8,68.3,29.92,NNE,15,0.0,0.0,95,0.01,CLR,,0.27,WeatherDisplay:10.37,2013-06-02 04:06:00,
2013-06-01 23:11:00,69.8,68.3,29.92,NNE,15,0.0,0.0,95,0.01,CLR,,0.27,WeatherDisplay:10.37,2013-06-02 04:11:00,
2013-06-01 23:16:00,69.9,68.4,29.92,NNE,14,0.0,0.0,95,0.01,CLR,,0.27,WeatherDisplay:10.37,2013-06-02 04:16:00,
2013-06-01 23:21:00,69.9,68.4,29.91,NNE,15,0.0,0.0,95,0.01,CLR,,0.27,WeatherDisplay:10.37,2013-06-02 04:21:00,
2013-06-01 23:26:00,69.8,68.3,29.92,NNE,15,0.0,0.0,95,0.01,CLR,,0.27,WeatherDisplay:10.37,2013-06-02 04:26:00,
2013-06-01 23:31:00,69.7,68.2,29.93,NNE,15,0.0,0.0,95,0.01,CLR,,0.27,WeatherDisplay:10.37,2013-06-02 04:31:00,
2013-06-01 23:36:00,69.6,68.1,29.93,NNE,15,0.0,0.0,95,0.01,CLR,,0.27,WeatherDisplay:10.37,2013-06-02 04:36:00,
2013-06-01 23:41:00,69.5,68.0,29.93,NNE,15,1.2,0.0,95,0.00,CLR,,0.27,WeatherDisplay:10.37,2013-06-02 04:41:00,
2013-06-01 23:46:00,69.6,68.1,29.93,NNE,15,0.0,0.0,95,0.00,CLR,,0.27,WeatherDisplay:10.37,2013-06-02 04:46:00,
2013-06-01 23:51:00,69.6,68.1,29.93,NNE,15,0.0,0.0,95,0.00,CLR,,0.27,WeatherDisplay:10.37,2013-06-02 04:51:00,
2013-06-01 23:56:00,69.6,68.1,29.93,NNE,15,0.0,0.0,95,0.00,CLR,,0.27,WeatherDisplay:10.37,2013-06-02 04:56:00,